Etusivu
METAR-TAF:

METAR-TAF

Lentoasemat :

Fourchambault

Nevers, Ranska

Leveyspiiri: 47-00N, Pituuspiiri: 003-06E, korkeus merenpinnasta: 180 m

Tämänhetkinen sää

Tämä raportti tehtiin 36 minuuttia sitten, kello 08.00 UTC
Tuuli 4 kn luoteesta, vaihdellen lännen ja pohjoisen välillä
Lämpötila 20°C
Kosteus 53%
Ilmanpaine 1022 hPa
Näkyvyys 10 km tai enemmän
ei pilviä alle 1500 m:ssä eikä cumulonimbus-pilviä

METAR: LFQG 130800Z AUTO 32004KT 280V360 CAVOK 20/10 Q1022

Aika: 10:36 (08:36 UTC)


TAF: puuttuu

Säähavainnot ja -ennusteet yli 4000 lentoasemalta (METAR- ja TAF-raportit).

Käytössä olevat sääasemat on merkitty karttaan keltaisilla ja punaisilla pisteillä.

Aseta hiiri pisteen päälle nähdäksesi sääaseman nimen.

Klikkaa sitten nähdäksesi säähavainnot ja -ennusteet.

Kartan vaihtaminen: klikkaa mustalla rastilla varustettuja vihreitä pisteitä, niin voit zoomata sisään; viivalla varustettua vihreää pistettä, niin voit zoomata ulos tai vihreitä nuolia, niin pääset viereisille kartoille.


METAR-TAF: